sensor_id;sensor_type;location;lat;lon;timestamp;pressure;altitude;pressure_sealevel;temperature;humidity
11314;BME280;5712;48.858;9.206;2022-12-18T00:00:39;99295.47;;;-8.76;100.00
11314;BME280;5712;48.858;9.206;2022-12-18T00:03:06;99304.06;;;-8.74;100.00
11314;BME280;5712;48.858;9.206;2022-12-18T00:05:32;99308.31;;;-8.74;100.00
11314;BME280;5712;48.858;9.206;2022-12-18T00:07:59;99309.31;;;-8.69;100.00
11314;BME280;5712;48.858;9.206;2022-12-18T00:10:26;99307.44;;;-8.75;100.00
11314;BME280;5712;48.858;9.206;2022-12-18T00:12:53;99302.16;;;-8.81;100.00
11314;BME280;5712;48.858;9.206;2022-12-18T00:15:21;99307.13;;;-8.87;100.00
11314;BME280;5712;48.858;9.206;2022-12-18T00:17:48;99305.41;;;-8.88;100.00
11314;BME280;5712;48.858;9.206;2022-12-18T00:20:15;99306.91;;;-8.96;100.00
11314;BME280;5712;48.858;9.206;2022-12-18T00:22:45;99299.91;;;-9.03;100.00
11314;BME280;5712;48.858;9.206;2022-12-18T00:25:12;99300.91;;;-8.98;100.00
11314;BME280;5712;48.858;9.206;2022-12-18T00:27:39;99305.09;;;-9.00;100.00
11314;BME280;5712;48.858;9.206;2022-12-18T00:30:06;99305.09;;;-9.00;100.00
11314;BME280;5712;48.858;9.206;2022-12-18T00:32:34;99305.88;;;-9.02;100.00
11314;BME280;5712;48.858;9.206;2022-12-18T00:35:00;99312.63;;;-9.06;100.00
11314;BME280;5712;48.858;9.206;2022-12-18T00:37:27;99314.19;;;-9.12;100.00
11314;BME280;5712;48.858;9.206;2022-12-18T00:39:53;99311.47;;;-9.17;100.00
11314;BME280;5712;48.858;9.206;2022-12-18T00:42:20;99316.47;;;-9.21;100.00
11314;BME280;5712;48.858;9.206;2022-12-18T00:45:04;99318.66;;;-9.36;100.00
11314;BME280;5712;48.858;9.206;2022-12-18T00:47:31;99317.75;;;-9.37;100.00
11314;BME280;5712;48.858;9.206;2022-12-18T00:49:59;99309.34;;;-9.33;100.00
11314;BME280;5712;48.858;9.206;2022-12-18T00:52:25;99310.13;;;-9.35;100.00
11314;BME280;5712;48.858;9.206;2022-12-18T00:54:52;99305.75;;;-9.39;100.00
11314;BME280;5712;48.858;9.206;2022-12-18T00:57:18;99305.91;;;-9.35;100.00
11314;BME280;5712;48.858;9.206;2022-12-18T00:59:45;99294.78;;;-9.35;100.00
11314;BME280;5712;48.858;9.206;2022-12-18T01:02:11;99302.34;;;-9.40;100.00
11314;BME280;5712;48.858;9.206;2022-12-18T01:04:38;99307.63;;;-9.34;100.00
11314;BME280;5712;48.858;9.206;2022-12-18T01:07:06;99305.78;;;-9.38;100.00
11314;BME280;5712;48.858;9.206;2022-12-18T01:09:32;99308.69;;;-9.26;100.00
11314;BME280;5712;48.858;9.206;2022-12-18T01:11:59;99304.56;;;-9.21;100.00
11314;BME280;5712;48.858;9.206;2022-12-18T01:14:26;99307.94;;;-9.22;100.00
11314;BME280;5712;48.858;9.206;2022-12-18T01:16:52;99307.28;;;-9.15;100.00
11314;BME280;5712;48.858;9.206;2022-12-18T01:19:19;99310.06;;;-9.06;100.00
11314;BME280;5712;48.858;9.206;2022-12-18T01:21:45;99320.25;;;-9.09;100.00
11314;BME280;5712;48.858;9.206;2022-12-18T01:24:13;99327.09;;;-9.08;100.00
11314;BME280;5712;48.858;9.206;2022-12-18T01:26:39;99320.25;;;-9.09;100.00
11314;BME280;5712;48.858;9.206;2022-12-18T01:29:06;99320.16;;;-9.12;100.00
11314;BME280;5712;48.858;9.206;2022-12-18T01:31:33;99325.34;;;-9.09;100.00
11314;BME280;5712;48.858;9.206;2022-12-18T01:34:00;99319.47;;;-9.05;100.00
11314;BME280;5712;48.858;9.206;2022-12-18T01:36:29;99325.44;;;-9.06;100.00
11314;BME280;5712;48.858;9.206;2022-12-18T01:38:56;99328.19;;;-8.98;100.00
11314;BME280;5712;48.858;9.206;2022-12-18T01:41:28;99324.84;;;-8.96;100.00
11314;BME280;5712;48.858;9.206;2022-12-18T01:44:51;99332.44;;;-8.99;100.00
11314;BME280;5712;48.858;9.206;2022-12-18T01:47:22;99333.38;;;-8.97;100.00
11314;BME280;5712;48.858;9.206;2022-12-18T01:49:49;99339.22;;;-9.01;100.00
11314;BME280;5712;48.858;9.206;2022-12-18T01:52:17;99341.81;;;-8.99;100.00
11314;BME280;5712;48.858;9.206;2022-12-18T01:54:45;99344.34;;;-9.01;100.00
11314;BME280;5712;48.858;9.206;2022-12-18T01:57:14;99318.72;;;-9.01;100.00
11314;BME280;5712;48.858;9.206;2022-12-18T01:59:42;99314.50;;;-9.00;100.00
11314;BME280;5712;48.858;9.206;2022-12-18T02:02:11;99310.38;;;-8.94;100.00
11314;BME280;5712;48.858;9.206;2022-12-18T02:04:41;99328.13;;;-9.00;100.00
11314;BME280;5712;48.858;9.206;2022-12-18T02:07:14;99322.84;;;-9.07;100.00
11314;BME280;5712;48.858;9.206;2022-12-18T02:09:46;99315.91;;;-9.11;100.00
11314;BME280;5712;48.858;9.206;2022-12-18T02:12:18;99316.69;;;-9.14;100.00
11314;BME280;5712;48.858;9.206;2022-12-18T02:14:52;99321.88;;;-9.11;100.00
11314;BME280;5712;48.858;9.206;2022-12-18T02:17:23;99313.47;;;-9.07;100.00
11314;BME280;5712;48.858;9.206;2022-12-18T02:20:02;99321.50;;;-8.93;100.00
11314;BME280;5712;48.858;9.206;2022-12-18T02:22:39;99325.75;;;-8.94;100.00
11314;BME280;5712;48.858;9.206;2022-12-18T02:25:17;99331.75;;;-8.93;100.00
11314;BME280;5712;48.858;9.206;2022-12-18T02:27:50;99332.59;;;-8.93;100.00
11314;BME280;5712;48.858;9.206;2022-12-18T02:30:18;99336.13;;;-8.88;100.00
11314;BME280;5712;48.858;9.206;2022-12-18T02:32:49;99327.63;;;-8.87;100.00
11314;BME280;5712;48.858;9.206;2022-12-18T02:35:21;99329.38;;;-8.86;100.00
11314;BME280;5712;48.858;9.206;2022-12-18T02:37:49;99337.88;;;-8.87;100.00
11314;BME280;5712;48.858;9.206;2022-12-18T02:40:24;99333.06;;;-8.75;100.00
11314;BME280;5712;48.858;9.206;2022-12-18T02:42:53;99328.03;;;-8.72;100.00
11314;BME280;5712;48.858;9.206;2022-12-18T02:45:20;99336.69;;;-8.67;100.00
11314;BME280;5712;48.858;9.206;2022-12-18T02:47:48;99348.81;;;-8.60;100.00
11314;BME280;5712;48.858;9.206;2022-12-18T02:50:19;99348.81;;;-8.60;100.00
11314;BME280;5712;48.858;9.206;2022-12-18T02:52:56;99344.41;;;-8.65;100.00
11314;BME280;5712;48.858;9.206;2022-12-18T02:55:35;99359.78;;;-8.65;100.00
11314;BME280;5712;48.858;9.206;2022-12-18T02:58:11;99355.53;;;-8.65;100.00
11314;BME280;5712;48.858;9.206;2022-12-18T03:00:45;99347.78;;;-8.68;100.00
11314;BME280;5712;48.858;9.206;2022-12-18T03:03:18;99356.41;;;-8.64;100.00
11314;BME280;5712;48.858;9.206;2022-12-18T03:05:52;99355.53;;;-8.65;100.00
11314;BME280;5712;48.858;9.206;2022-12-18T03:08:22;99341.97;;;-8.61;100.00
11314;BME280;5712;48.858;9.206;2022-12-18T03:10:53;99343.59;;;-8.63;100.00
11314;BME280;5712;48.858;9.206;2022-12-18T03:13:26;99340.09;;;-8.66;100.00
11314;BME280;5712;48.858;9.206;2022-12-18T03:15:56;99348.59;;;-8.69;100.00
11314;BME280;5712;48.858;9.206;2022-12-18T03:18:27;99345.97;;;-8.72;100.00
11314;BME280;5712;48.858;9.206;2022-12-18T03:20:58;99351.97;;;-8.70;100.00
11314;BME280;5712;48.858;9.206;2022-12-18T03:23:29;99347.78;;;-8.66;100.00
11314;BME280;5712;48.858;9.206;2022-12-18T03:26:02;99351.91;;;-8.73;100.00
11314;BME280;5712;48.858;9.206;2022-12-18T03:28:33;99358.03;;;-8.66;100.00
11314;BME280;5712;48.858;9.206;2022-12-18T03:31:02;99358.97;;;-8.64;100.00
11314;BME280;5712;48.858;9.206;2022-12-18T03:33:34;99350.34;;;-8.68;100.00
11314;BME280;5712;48.858;9.206;2022-12-18T03:36:03;99369.06;;;-8.69;100.00
11314;BME280;5712;48.858;9.206;2022-12-18T03:38:30;99364.69;;;-8.74;100.00
11314;BME280;5712;48.858;9.206;2022-12-18T03:40:59;99362.00;;;-8.79;100.00
11314;BME280;5712;48.858;9.206;2022-12-18T03:43:38;99362.84;;;-8.80;100.00
11314;BME280;5712;48.858;9.206;2022-12-18T03:46:11;99354.19;;;-8.83;100.00
11314;BME280;5712;48.858;9.206;2022-12-18T03:48:43;99349.09;;;-8.82;100.00
11314;BME280;5712;48.858;9.206;2022-12-18T03:51:23;99356.78;;;-8.82;100.00
11314;BME280;5712;48.858;9.206;2022-12-18T03:53:54;99354.31;;;-8.79;100.00
11314;BME280;5712;48.858;9.206;2022-12-18T03:56:24;99353.41;;;-8.81;100.00
11314;BME280;5712;48.858;9.206;2022-12-18T03:58:55;99361.06;;;-8.82;100.00
11314;BME280;5712;48.858;9.206;2022-12-18T04:01:28;99357.56;;;-8.84;100.00
11314;BME280;5712;48.858;9.206;2022-12-18T04:03:58;99357.56;;;-8.84;100.00
11314;BME280;5712;48.858;9.206;2022-12-18T04:06:26;99344.75;;;-8.86;100.00
11314;BME280;5712;48.858;9.206;2022-12-18T04:08:53;99348.13;;;-8.87;100.00
11314;BME280;5712;48.858;9.206;2022-12-18T04:11:20;99347.84;;;-8.97;100.00
11314;BME280;5712;48.858;9.206;2022-12-18T04:13:46;99351.25;;;-8.98;100.00
11314;BME280;5712;48.858;9.206;2022-12-18T04:16:14;99345.91;;;-9.06;100.00
11314;BME280;5712;48.858;9.206;2022-12-18T04:18:40;99349.47;;;-9.01;100.00
11314;BME280;5712;48.858;9.206;2022-12-18T04:21:07;99351.81;;;-9.08;100.00
11314;BME280;5712;48.858;9.206;2022-12-18T04:23:34;99349.47;;;-9.01;100.00
11314;BME280;5712;48.858;9.206;2022-12-18T04:26:00;99344.28;;;-9.04;100.00
11314;BME280;5712;48.858;9.206;2022-12-18T04:28:27;99348.41;;;-9.09;100.00
11314;BME280;5712;48.858;9.206;2022-12-18T04:30:53;99353.47;;;-9.10;100.00
11314;BME280;5712;48.858;9.206;2022-12-18T04:33:21;99356.00;;;-9.12;100.00
11314;BME280;5712;48.858;9.206;2022-12-18T04:35:48;99374.75;;;-9.13;100.00
11314;BME280;5712;48.858;9.206;2022-12-18T04:38:14;99368.72;;;-9.15;100.00
11314;BME280;5712;48.858;9.206;2022-12-18T04:40:41;99373.00;;;-9.14;100.00
11314;BME280;5712;48.858;9.206;2022-12-18T04:43:07;99356.81;;;-9.13;100.00
11314;BME280;5712;48.858;9.206;2022-12-18T04:45:34;99350.88;;;-9.12;100.00
11314;BME280;5712;48.858;9.206;2022-12-18T04:48:02;99355.91;;;-9.15;100.00
11314;BME280;5712;48.858;9.206;2022-12-18T04:50:30;99352.44;;;-9.17;100.00
11314;BME280;5712;48.858;9.206;2022-12-18T04:52:57;99347.97;;;-9.25;100.00
11314;BME280;5712;48.858;9.206;2022-12-18T04:55:23;99347.91;;;-9.27;100.00
11314;BME280;5712;48.858;9.206;2022-12-18T04:57:50;99345.84;;;-9.40;100.00
11314;BME280;5712;48.858;9.206;2022-12-18T05:00:17;99338.72;;;-9.50;100.00
11314;BME280;5712;48.858;9.206;2022-12-18T05:02:43;99329.28;;;-9.52;100.00
11314;BME280;5712;48.858;9.206;2022-12-18T05:05:10;99333.44;;;-9.56;100.00
11314;BME280;5712;48.858;9.206;2022-12-18T05:07:38;99343.50;;;-9.62;100.00
11314;BME280;5712;48.858;9.206;2022-12-18T05:10:08;99340.75;;;-9.68;100.00
11314;BME280;5712;48.858;9.206;2022-12-18T05:12:35;99332.38;;;-9.64;100.00
11314;BME280;5712;48.858;9.206;2022-12-18T05:15:22;99343.44;;;-9.65;100.00
11314;BME280;5712;48.858;9.206;2022-12-18T05:17:48;99346.09;;;-9.60;100.00
11314;BME280;5712;48.858;9.206;2022-12-18T05:20:15;99348.78;;;-9.56;100.00
11314;BME280;5712;48.858;9.206;2022-12-18T05:22:43;99343.00;;;-9.49;100.00
11314;BME280;5712;48.858;9.206;2022-12-18T05:25:09;99349.16;;;-9.72;100.00
11314;BME280;5712;48.858;9.206;2022-12-18T05:27:35;99349.63;;;-9.86;100.00
11314;BME280;5712;48.858;9.206;2022-12-18T05:30:03;99348.63;;;-9.90;100.00
11314;BME280;5712;48.858;9.206;2022-12-18T05:32:29;99358.19;;;-9.84;100.00
11314;BME280;5712;48.858;9.206;2022-12-18T05:34:56;99359.88;;;-9.85;100.00
11314;BME280;5712;48.858;9.206;2022-12-18T05:37:22;99355.69;;;-9.83;100.00
11314;BME280;5712;48.858;9.206;2022-12-18T05:39:50;99365.22;;;-9.77;100.00
11314;BME280;5712;48.858;9.206;2022-12-18T05:42:17;99366.09;;;-9.77;100.00
11314;BME280;5712;48.858;9.206;2022-12-18T05:44:43;99371.22;;;-9.77;100.00
11314;BME280;5712;48.858;9.206;2022-12-18T05:47:10;99374.56;;;-9.78;100.00
11314;BME280;5712;48.858;9.206;2022-12-18T05:49:36;99373.75;;;-9.77;100.00
11314;BME280;5712;48.858;9.206;2022-12-18T05:52:03;99367.59;;;-9.83;100.00
11314;BME280;5712;48.858;9.206;2022-12-18T05:54:30;99359.13;;;-9.81;100.00
11314;BME280;5712;48.858;9.206;2022-12-18T05:56:58;99353.91;;;-9.84;100.00
11314;BME280;5712;48.858;9.206;2022-12-18T05:59:24;99357.31;;;-9.85;100.00
11314;BME280;5712;48.858;9.206;2022-12-18T06:01:50;99357.41;;;-9.82;100.00
11314;BME280;5712;48.858;9.206;2022-12-18T06:04:17;99365.75;;;-9.87;100.00
11314;BME280;5712;48.858;9.206;2022-12-18T06:06:43;99355.38;;;-9.92;100.00
11314;BME280;5712;48.858;9.206;2022-12-18T06:09:10;99365.81;;;-9.86;100.00
11314;BME280;5712;48.858;9.206;2022-12-18T06:11:37;99363.97;;;-9.90;100.00
11314;BME280;5712;48.858;9.206;2022-12-18T06:14:06;99363.06;;;-9.92;100.00
11314;BME280;5712;48.858;9.206;2022-12-18T06:16:32;99365.53;;;-9.95;100.00
11314;BME280;5712;48.858;9.206;2022-12-18T06:19:00;99374.19;;;-9.90;100.00
11314;BME280;5712;48.858;9.206;2022-12-18T06:21:26;99363.19;;;-9.87;100.00
11314;BME280;5712;48.858;9.206;2022-12-18T06:23:53;99368.34;;;-9.86;100.00
11314;BME280;5712;48.858;9.206;2022-12-18T06:26:20;99365.72;;;-9.89;100.00
11314;BME280;5712;48.858;9.206;2022-12-18T06:28:47;99364.72;;;-9.94;100.00
11314;BME280;5712;48.858;9.206;2022-12-18T06:31:15;99363.63;;;-10.02;100.00
11314;BME280;5712;48.858;9.206;2022-12-18T06:33:41;99370.47;;;-10.01;100.00
11314;BME280;5712;48.858;9.206;2022-12-18T06:36:10;99384.88;;;-10.03;100.00
11314;BME280;5712;48.858;9.206;2022-12-18T06:38:38;99372.28;;;-9.97;100.00
11314;BME280;5712;48.858;9.206;2022-12-18T06:41:06;99389.53;;;-9.90;100.00
11314;BME280;5712;48.858;9.206;2022-12-18T06:43:33;99377.50;;;-9.94;100.00
11314;BME280;5712;48.858;9.206;2022-12-18T06:46:00;99381.72;;;-9.96;100.00
11314;BME280;5712;48.858;9.206;2022-12-18T06:48:28;99379.16;;;-9.96;100.00
11314;BME280;5712;48.858;9.206;2022-12-18T06:50:55;99389.13;;;-10.05;100.00
11314;BME280;5712;48.858;9.206;2022-12-18T06:53:22;99376.88;;;-10.15;100.00
11314;BME280;5712;48.858;9.206;2022-12-18T06:55:48;99374.16;;;-10.19;100.00
11314;BME280;5712;48.858;9.206;2022-12-18T06:58:15;99369.75;;;-10.25;100.00
11314;BME280;5712;48.858;9.206;2022-12-18T07:00:41;99378.44;;;-10.20;100.00
11314;BME280;5712;48.858;9.206;2022-12-18T07:03:08;99376.88;;;-10.15;100.00
11314;BME280;5712;48.858;9.206;2022-12-18T07:05:40;99378.50;;;-10.17;100.00
11314;BME280;5712;48.858;9.206;2022-12-18T07:08:07;99380.25;;;-10.16;100.00
11314;BME280;5712;48.858;9.206;2022-12-18T07:10:34;99398.88;;;-10.20;100.00
11314;BME280;5712;48.858;9.206;2022-12-18T07:13:00;99400.63;;;-10.19;100.00
11314;BME280;5712;48.858;9.206;2022-12-18T07:15:27;99404.31;;;-10.09;100.00
11314;BME280;5712;48.858;9.206;2022-12-18T07:17:53;99406.69;;;-10.15;100.00
11314;BME280;5712;48.858;9.206;2022-12-18T07:20:20;99404.00;;;-10.20;100.00
11314;BME280;5712;48.858;9.206;2022-12-18T07:22:47;99404.94;;;-10.16;100.00
11314;BME280;5712;48.858;9.206;2022-12-18T07:25:14;99399.47;;;-10.27;100.00
11314;BME280;5712;48.858;9.206;2022-12-18T07:27:40;99399.28;;;-10.33;100.00
11314;BME280;5712;48.858;9.206;2022-12-18T07:30:08;99409.50;;;-10.33;100.00
11314;BME280;5712;48.858;9.206;2022-12-18T07:32:35;99405.34;;;-10.31;100.00
11314;BME280;5712;48.858;9.206;2022-12-18T07:35:02;99422.66;;;-10.21;100.00
11314;BME280;5712;48.858;9.206;2022-12-18T07:37:29;99419.59;;;-10.11;100.00
11314;BME280;5712;48.858;9.206;2022-12-18T07:39:56;99424.03;;;-10.05;100.00
11314;BME280;5712;48.858;9.206;2022-12-18T07:42:23;99418.91;;;-10.05;100.00
11314;BME280;5712;48.858;9.206;2022-12-18T07:45:00;99429.75;;;-10.12;100.00
11314;BME280;5712;48.858;9.206;2022-12-18T07:47:27;99427.97;;;-10.15;100.00
11314;BME280;5712;48.858;9.206;2022-12-18T07:50:01;99425.84;;;-10.01;100.00
11314;BME280;5712;48.858;9.206;2022-12-18T07:52:27;99431.13;;;-9.95;100.00
11314;BME280;5712;48.858;9.206;2022-12-18T07:54:54;99442.72;;;-9.80;100.00
11314;BME280;5712;48.858;9.206;2022-12-18T07:57:22;99437.88;;;-9.71;100.00
11314;BME280;5712;48.858;9.206;2022-12-18T07:59:48;99441.44;;;-9.66;100.00
11314;BME280;5712;48.858;9.206;2022-12-18T08:02:15;99432.97;;;-9.65;100.00
11314;BME280;5712;48.858;9.206;2022-12-18T08:04:41;99435.59;;;-9.62;100.00
11314;BME280;5712;48.858;9.206;2022-12-18T08:07:08;99425.28;;;-9.65;100.00
11314;BME280;5712;48.858;9.206;2022-12-18T08:09:34;99424.50;;;-9.62;100.00
11314;BME280;5712;48.858;9.206;2022-12-18T08:12:01;99434.75;;;-9.61;100.00
11314;BME280;5712;48.858;9.206;2022-12-18T08:14:29;99433.22;;;-9.56;100.00
11314;BME280;5712;48.858;9.206;2022-12-18T08:16:55;99438.63;;;-9.47;100.00
11314;BME280;5712;48.858;9.206;2022-12-18T08:19:23;99431.91;;;-9.42;100.00
11314;BME280;5712;48.858;9.206;2022-12-18T08:21:49;99428.09;;;-9.26;100.00
11314;BME280;5712;48.858;9.206;2022-12-18T08:24:16;99438.69;;;-9.14;100.00
11314;BME280;5712;48.858;9.206;2022-12-18T08:26:43;99441.31;;;-9.13;100.00
11314;BME280;5712;48.858;9.206;2022-12-18T08:29:09;99435.22;;;-9.16;100.00
11314;BME280;5712;48.858;9.206;2022-12-18T08:31:37;99434.53;;;-9.11;100.00
11314;BME280;5712;48.858;9.206;2022-12-18T08:34:04;99436.47;;;-9.04;100.00
11314;BME280;5712;48.858;9.206;2022-12-18T08:36:30;99439.47;;;-8.87;100.00
11314;BME280;5712;48.858;9.206;2022-12-18T08:38:57;99437.03;;;-8.83;100.00
11314;BME280;5712;48.858;9.206;2022-12-18T08:41:23;99444.09;;;-8.74;100.00
11314;BME280;5712;48.858;9.206;2022-12-18T08:43:50;99428.78;;;-8.73;100.00
11314;BME280;5712;48.858;9.206;2022-12-18T08:46:36;99433.97;;;-8.70;100.00
11314;BME280;5712;48.858;9.206;2022-12-18T08:49:05;99438.31;;;-8.67;100.00
11314;BME280;5712;48.858;9.206;2022-12-18T08:51:32;99439.34;;;-8.61;100.00
11314;BME280;5712;48.858;9.206;2022-12-18T08:53:58;99443.88;;;-8.51;100.00
11314;BME280;5712;48.858;9.206;2022-12-18T08:56:25;99437.09;;;-8.49;100.00
11314;BME280;5712;48.858;9.206;2022-12-18T08:58:52;99438.06;;;-8.44;100.00
11314;BME280;5712;48.858;9.206;2022-12-18T09:01:19;99434.06;;;-8.33;100.00
11314;BME280;5712;48.858;9.206;2022-12-18T09:03:46;99436.63;;;-8.33;100.00
11314;BME280;5712;48.858;9.206;2022-12-18T09:06:15;99420.41;;;-8.32;100.00
11314;BME280;5712;48.858;9.206;2022-12-18T09:08:42;99414.66;;;-8.25;100.00
11314;BME280;5712;48.858;9.206;2022-12-18T09:11:13;99409.63;;;-8.19;100.00
11314;BME280;5712;48.858;9.206;2022-12-18T09:13:39;99421.63;;;-8.18;100.00
11314;BME280;5712;48.858;9.206;2022-12-18T09:16:06;99424.38;;;-8.09;100.00
11314;BME280;5712;48.858;9.206;2022-12-18T09:18:33;99427.97;;;-8.02;100.00
11314;BME280;5712;48.858;9.206;2022-12-18T09:20:59;99421.31;;;-7.94;100.00
11314;BME280;5712;48.858;9.206;2022-12-18T09:23:27;99419.75;;;-7.89;100.00
11314;BME280;5712;48.858;9.206;2022-12-18T09:25:58;99412.88;;;-7.89;100.00
11314;BME280;5712;48.858;9.206;2022-12-18T09:28:25;99418.16;;;-7.83;100.00
11314;BME280;5712;48.858;9.206;2022-12-18T09:30:51;99407.28;;;-7.73;100.00
11314;BME280;5712;48.858;9.206;2022-12-18T09:33:17;99402.16;;;-7.73;100.00
11314;BME280;5712;48.858;9.206;2022-12-18T09:35:45;99398.88;;;-7.66;100.00
11314;BME280;5712;48.858;9.206;2022-12-18T09:38:14;99410.06;;;-7.62;100.00
11314;BME280;5712;48.858;9.206;2022-12-18T09:40:44;99402.50;;;-7.58;100.00
11314;BME280;5712;48.858;9.206;2022-12-18T09:43:15;99412.91;;;-7.52;100.00
11314;BME280;5712;48.858;9.206;2022-12-18T09:45:45;99407.81;;;-7.49;100.00
11314;BME280;5712;48.858;9.206;2022-12-18T09:48:17;99405.38;;;-7.43;100.00
11314;BME280;5712;48.858;9.206;2022-12-18T09:50:46;99394.41;;;-7.36;100.00
11314;BME280;5712;48.858;9.206;2022-12-18T09:53:18;99395.25;;;-7.37;100.00
11314;BME280;5712;48.858;9.206;2022-12-18T09:55:48;99392.81;;;-7.31;100.00
11314;BME280;5712;48.858;9.206;2022-12-18T09:58:20;99396.34;;;-7.26;100.00
11314;BME280;5712;48.858;9.206;2022-12-18T10:00:51;99396.41;;;-7.21;100.00
11314;BME280;5712;48.858;9.206;2022-12-18T10:03:20;99405.09;;;-7.16;100.00
11314;BME280;5712;48.858;9.206;2022-12-18T10:05:57;99408.63;;;-7.10;100.00
11314;BME280;5712;48.858;9.206;2022-12-18T10:08:33;99406.25;;;-7.01;100.00
11314;BME280;5712;48.858;9.206;2022-12-18T10:11:18;99404.66;;;-6.96;100.00
11314;BME280;5712;48.858;9.206;2022-12-18T10:13:51;99405.72;;;-6.84;100.00
11314;BME280;5712;48.858;9.206;2022-12-18T10:16:24;99404.19;;;-6.74;100.00
11314;BME280;5712;48.858;9.206;2022-12-18T10:19:11;99409.63;;;-6.59;100.00
11314;BME280;5712;48.858;9.206;2022-12-18T10:21:47;99408.94;;;-6.49;100.00
11314;BME280;5712;48.858;9.206;2022-12-18T10:24:23;99415.03;;;-6.44;100.00
11314;BME280;5712;48.858;9.206;2022-12-18T10:26:58;99411.63;;;-6.43;100.00
11314;BME280;5712;48.858;9.206;2022-12-18T10:29:30;99410.06;;;-6.35;100.00
11314;BME280;5712;48.858;9.206;2022-12-18T10:31:57;99413.56;;;-6.32;100.00
11314;BME280;5712;48.858;9.206;2022-12-18T10:34:23;99408.56;;;-6.24;100.00
11314;BME280;5712;48.858;9.206;2022-12-18T10:36:50;99412.00;;;-6.22;100.00
11314;BME280;5712;48.858;9.206;2022-12-18T10:39:18;99413.84;;;-6.15;100.00
11314;BME280;5712;48.858;9.206;2022-12-18T10:41:45;99408.88;;;-6.03;100.00
11314;BME280;5712;48.858;9.206;2022-12-18T10:44:18;99414.97;;;-5.98;100.00
11314;BME280;5712;48.858;9.206;2022-12-18T10:46:46;99406.44;;;-5.96;100.00
11314;BME280;5712;48.858;9.206;2022-12-18T10:49:22;99414.31;;;-5.85;100.00
11314;BME280;5712;48.858;9.206;2022-12-18T10:51:49;99408.41;;;-5.77;100.00
11314;BME280;5712;48.858;9.206;2022-12-18T10:54:18;99400.78;;;-5.71;100.00
11314;BME280;5712;48.858;9.206;2022-12-18T10:56:47;99405.16;;;-5.65;100.00
11314;BME280;5712;48.858;9.206;2022-12-18T10:59:17;99405.28;;;-5.55;100.00
11314;BME280;5712;48.858;9.206;2022-12-18T11:01:49;99410.59;;;-5.46;100.00
11314;BME280;5712;48.858;9.206;2022-12-18T11:04:18;99417.59;;;-5.34;100.00
11314;BME280;5712;48.858;9.206;2022-12-18T11:06:53;99405.78;;;-5.20;100.00
11314;BME280;5712;48.858;9.206;2022-12-18T11:09:23;99395.47;;;-5.19;100.00
11314;BME280;5712;48.858;9.206;2022-12-18T11:11:51;99394.66;;;-5.15;100.00
11314;BME280;5712;48.858;9.206;2022-12-18T11:14:22;99382.88;;;-4.96;100.00
11314;BME280;5712;48.858;9.206;2022-12-18T11:16:49;99384.69;;;-4.89;100.00
11314;BME280;5712;48.858;9.206;2022-12-18T11:21:50;99349.63;;;-4.71;100.00
11314;BME280;5712;48.858;9.206;2022-12-18T11:24:20;99339.28;;;-4.74;100.00
11314;BME280;5712;48.858;9.206;2022-12-18T11:26:48;99339.28;;;-4.75;100.00
11314;BME280;5712;48.858;9.206;2022-12-18T11:29:16;99338.47;;;-4.71;100.00
11314;BME280;5712;48.858;9.206;2022-12-18T11:31:45;99337.56;;;-4.73;100.00
11314;BME280;5712;48.858;9.206;2022-12-18T11:34:15;99340.13;;;-4.73;100.00
11314;BME280;5712;48.858;9.206;2022-12-18T11:36:46;99342.75;;;-4.70;100.00
11314;BME280;5712;48.858;9.206;2022-12-18T11:39:17;99353.94;;;-4.68;100.00
11314;BME280;5712;48.858;9.206;2022-12-18T11:41:50;99347.00;;;-4.72;100.00
11314;BME280;5712;48.858;9.206;2022-12-18T11:44:43;99353.06;;;-4.72;100.00
11314;BME280;5712;48.858;9.206;2022-12-18T11:47:21;99353.91;;;-4.70;100.00
11314;BME280;5712;48.858;9.206;2022-12-18T11:49:51;99345.34;;;-4.67;100.00
11314;BME280;5712;48.858;9.206;2022-12-18T11:52:21;99336.81;;;-4.63;100.00
11314;BME280;5712;48.858;9.206;2022-12-18T11:54:51;99343.78;;;-4.53;100.00
11314;BME280;5712;48.858;9.206;2022-12-18T11:57:31;99349.03;;;-4.44;100.00
11314;BME280;5712;48.858;9.206;2022-12-18T12:00:04;99342.25;;;-4.33;100.00
11314;BME280;5712;48.858;9.206;2022-12-18T12:02:47;99334.53;;;-4.29;100.00
11314;BME280;5712;48.858;9.206;2022-12-18T12:05:28;99336.28;;;-4.26;100.00
11314;BME280;5712;48.858;9.206;2022-12-18T12:08:04;99326.84;;;-4.21;100.00
11314;BME280;5712;48.858;9.206;2022-12-18T12:10:43;99319.97;;;-4.22;100.00
11314;BME280;5712;48.858;9.206;2022-12-18T12:13:23;99311.38;;;-4.21;100.00
11314;BME280;5712;48.858;9.206;2022-12-18T12:16:01;99315.66;;;-4.22;100.00
11314;BME280;5712;48.858;9.206;2022-12-18T12:18:41;99311.41;;;-4.15;100.00
11314;BME280;5712;48.858;9.206;2022-12-18T12:21:17;99307.97;;;-4.14;100.00
11314;BME280;5712;48.858;9.206;2022-12-18T12:23:50;99311.47;;;-4.09;100.00
11314;BME280;5712;48.858;9.206;2022-12-18T12:26:24;99312.34;;;-4.06;100.00
11314;BME280;5712;48.858;9.206;2022-12-18T12:29:05;99308.06;;;-3.99;100.00
11314;BME280;5712;48.858;9.206;2022-12-18T12:31:46;99316.75;;;-3.91;100.00
11314;BME280;5712;48.858;9.206;2022-12-18T12:34:20;99316.81;;;-3.79;100.00
11314;BME280;5712;48.858;9.206;2022-12-18T12:36:59;99308.25;;;-3.69;100.00
11314;BME280;5712;48.858;9.206;2022-12-18T12:39:30;99313.47;;;-3.57;100.00
11314;BME280;5712;48.858;9.206;2022-12-18T12:41:59;99320.41;;;-3.50;100.00
11314;BME280;5712;48.858;9.206;2022-12-18T12:44:47;99320.41;;;-3.50;100.00
11314;BME280;5712;48.858;9.206;2022-12-18T12:47:18;99310.97;;;-3.39;100.00
11314;BME280;5712;48.858;9.206;2022-12-18T12:49:49;99303.25;;;-3.36;100.00
11314;BME280;5712;48.858;9.206;2022-12-18T12:52:27;99302.44;;;-3.28;100.00
11314;BME280;5712;48.858;9.206;2022-12-18T12:54:55;99313.63;;;-3.27;100.00
11314;BME280;5712;48.858;9.206;2022-12-18T12:57:26;99321.41;;;-3.24;100.00
11314;BME280;5712;48.858;9.206;2022-12-18T13:00:00;99314.50;;;-3.22;100.00
11314;BME280;5712;48.858;9.206;2022-12-18T13:02:33;99315.38;;;-3.17;100.00
11314;BME280;5712;48.858;9.206;2022-12-18T13:05:08;99312.81;;;-3.11;100.00
11314;BME280;5712;48.858;9.206;2022-12-18T13:07:44;99317.13;;;-3.10;100.00
11314;BME280;5712;48.858;9.206;2022-12-18T13:10:31;99308.53;;;-3.06;100.00
11314;BME280;5712;48.858;9.206;2022-12-18T13:12:59;99313.69;;;-3.09;100.00
11314;BME280;5712;48.858;9.206;2022-12-18T13:15:30;99311.13;;;-3.06;100.00